DRRN/NIM METAR and TAF weather

Enter ICAO airport designator
Station Type Date Time Source
DRRN METAR 2022/06/27 17:00 UTC NOAA

DRRN 271700Z VRB03KT CAVOK 37/12 Q1009 NOSIG


Station Type Date Time Source
DRRN Decoded METAR 2022/06/27 17:00 UTC NOAA

Niamey-Aero, Niger (DRRN) 13-29N 002-10E 227M
Jun 27, 2022 - 01:00 PM EDT / 2022.06.27 1700 UTC
Wind: Variable at 3 MPH (3 KT):0
Visibility: greater than 7 mile(s):0
Temperature: 98 F (37 C)
Heat index: 95.5 F (35.3 C):1
Dew Point: 53 F (12 C)
Relative Humidity: 22%
Pressure (altimeter): 29.80 in. Hg (1009 hPa)
ob: DRRN 271700Z VRB03KT CAVOK 37/12 Q1009 NOSIG
cycle: 17

Station Type Date Time Source
DRRN TAF 2022/06/27 12:21 UTC NOAA

TAF DRRN 271100Z 2712/2818 22006KT 9999 FEW030 PROB40 2717/2721 08025G40KT 0800 SQ BLDU TSRA FEW030 SCT033CB

Example: see airport list